sensor_id;sensor_type;location;lat;lon;timestamp;temperature;humidity
56076;DHT22;41951;49.022;12.066;2024-02-14T00:02:08;2.70;99.90
56076;DHT22;41951;49.022;12.066;2024-02-14T00:04:33;2.80;99.90
56076;DHT22;41951;49.022;12.066;2024-02-14T00:06:59;2.80;99.90
56076;DHT22;41951;49.022;12.066;2024-02-14T00:09:25;2.70;99.90
56076;DHT22;41951;49.022;12.066;2024-02-14T00:11:51;2.80;99.90
56076;DHT22;41951;49.022;12.066;2024-02-14T00:14:17;2.70;99.90
56076;DHT22;41951;49.022;12.066;2024-02-14T00:16:44;2.70;99.90
56076;DHT22;41951;49.022;12.066;2024-02-14T00:19:10;2.60;99.90
56076;DHT22;41951;49.022;12.066;2024-02-14T00:21:35;2.50;99.90
56076;DHT22;41951;49.022;12.066;2024-02-14T00:24:01;2.40;99.90
56076;DHT22;41951;49.022;12.066;2024-02-14T00:26:27;2.40;99.90
56076;DHT22;41951;49.022;12.066;2024-02-14T00:28:52;2.50;99.90
56076;DHT22;41951;49.022;12.066;2024-02-14T00:31:18;2.60;99.90
56076;DHT22;41951;49.022;12.066;2024-02-14T00:33:44;2.60;99.90
56076;DHT22;41951;49.022;12.066;2024-02-14T00:36:11;2.70;99.90
56076;DHT22;41951;49.022;12.066;2024-02-14T00:38:37;2.50;99.90
56076;DHT22;41951;49.022;12.066;2024-02-14T00:41:03;2.40;99.90
56076;DHT22;41951;49.022;12.066;2024-02-14T00:43:28;2.50;99.90
56076;DHT22;41951;49.022;12.066;2024-02-14T00:45:54;2.40;99.90
56076;DHT22;41951;49.022;12.066;2024-02-14T00:48:24;2.30;99.90
56076;DHT22;41951;49.022;12.066;2024-02-14T00:50:50;2.30;99.90
56076;DHT22;41951;49.022;12.066;2024-02-14T00:53:17;2.40;99.90
56076;DHT22;41951;49.022;12.066;2024-02-14T00:55:43;2.40;99.90
56076;DHT22;41951;49.022;12.066;2024-02-14T00:58:09;2.50;99.90
56076;DHT22;41951;49.022;12.066;2024-02-14T01:00:34;2.40;99.90
56076;DHT22;41951;49.022;12.066;2024-02-14T01:03:00;2.30;99.90
56076;DHT22;41951;49.022;12.066;2024-02-14T01:05:25;2.20;99.90
56076;DHT22;41951;49.022;12.066;2024-02-14T01:07:52;2.20;99.90
56076;DHT22;41951;49.022;12.066;2024-02-14T01:10:19;2.10;99.90
56076;DHT22;41951;49.022;12.066;2024-02-14T01:12:45;2.10;99.90
56076;DHT22;41951;49.022;12.066;2024-02-14T01:15:10;2.10;99.90
56076;DHT22;41951;49.022;12.066;2024-02-14T01:17:36;2.00;99.90
56076;DHT22;41951;49.022;12.066;2024-02-14T01:20:07;2.00;99.90
56076;DHT22;41951;49.022;12.066;2024-02-14T01:22:35;2.00;99.90
56076;DHT22;41951;49.022;12.066;2024-02-14T01:25:01;2.00;99.90
56076;DHT22;41951;49.022;12.066;2024-02-14T01:27:28;2.00;99.90
56076;DHT22;41951;49.022;12.066;2024-02-14T01:29:54;2.10;99.90
56076;DHT22;41951;49.022;12.066;2024-02-14T01:32:20;2.10;99.90
56076;DHT22;41951;49.022;12.066;2024-02-14T01:34:46;2.20;99.90
56076;DHT22;41951;49.022;12.066;2024-02-14T01:37:11;2.40;99.90
56076;DHT22;41951;49.022;12.066;2024-02-14T01:39:37;2.40;99.90
56076;DHT22;41951;49.022;12.066;2024-02-14T01:42:03;2.30;99.90
56076;DHT22;41951;49.022;12.066;2024-02-14T01:44:33;2.30;99.90
56076;DHT22;41951;49.022;12.066;2024-02-14T01:47:00;2.30;99.90
56076;DHT22;41951;49.022;12.066;2024-02-14T01:49:26;2.40;99.90
56076;DHT22;41951;49.022;12.066;2024-02-14T01:51:55;2.50;99.90
56076;DHT22;41951;49.022;12.066;2024-02-14T01:54:24;2.50;99.90
56076;DHT22;41951;49.022;12.066;2024-02-14T01:56:50;2.50;99.90
56076;DHT22;41951;49.022;12.066;2024-02-14T01:59:16;2.50;99.90
56076;DHT22;41951;49.022;12.066;2024-02-14T02:01:42;2.50;99.90
56076;DHT22;41951;49.022;12.066;2024-02-14T02:04:08;2.50;99.90
56076;DHT22;41951;49.022;12.066;2024-02-14T02:06:33;2.60;99.90
56076;DHT22;41951;49.022;12.066;2024-02-14T02:09:00;2.60;99.90
56076;DHT22;41951;49.022;12.066;2024-02-14T02:11:25;2.60;99.90
56076;DHT22;41951;49.022;12.066;2024-02-14T02:13:52;2.60;99.90
56076;DHT22;41951;49.022;12.066;2024-02-14T02:16:17;2.70;99.90
56076;DHT22;41951;49.022;12.066;2024-02-14T02:18:45;2.80;99.90
56076;DHT22;41951;49.022;12.066;2024-02-14T02:21:11;2.80;99.90
56076;DHT22;41951;49.022;12.066;2024-02-14T02:23:38;2.80;99.90
56076;DHT22;41951;49.022;12.066;2024-02-14T02:26:06;2.80;99.90
56076;DHT22;41951;49.022;12.066;2024-02-14T02:28:32;2.80;99.90
56076;DHT22;41951;49.022;12.066;2024-02-14T02:30:58;2.80;99.90
56076;DHT22;41951;49.022;12.066;2024-02-14T02:33:23;2.80;99.90
56076;DHT22;41951;49.022;12.066;2024-02-14T02:35:50;2.80;99.90
56076;DHT22;41951;49.022;12.066;2024-02-14T02:38:16;2.80;99.90
56076;DHT22;41951;49.022;12.066;2024-02-14T02:40:47;2.80;99.90
56076;DHT22;41951;49.022;12.066;2024-02-14T02:43:12;2.80;99.90
56076;DHT22;41951;49.022;12.066;2024-02-14T02:45:38;2.80;99.90
56076;DHT22;41951;49.022;12.066;2024-02-14T02:48:04;2.80;99.90
56076;DHT22;41951;49.022;12.066;2024-02-14T02:50:30;2.80;99.90
56076;DHT22;41951;49.022;12.066;2024-02-14T02:52:56;2.80;99.90
56076;DHT22;41951;49.022;12.066;2024-02-14T02:55:22;2.80;99.90
56076;DHT22;41951;49.022;12.066;2024-02-14T02:57:48;2.80;99.90
56076;DHT22;41951;49.022;12.066;2024-02-14T03:00:14;2.80;99.90
56076;DHT22;41951;49.022;12.066;2024-02-14T03:02:41;2.80;99.90
56076;DHT22;41951;49.022;12.066;2024-02-14T03:05:10;2.80;99.90
56076;DHT22;41951;49.022;12.066;2024-02-14T03:07:36;2.70;99.90
56076;DHT22;41951;49.022;12.066;2024-02-14T03:10:03;2.60;99.90
56076;DHT22;41951;49.022;12.066;2024-02-14T03:12:29;2.50;99.90
56076;DHT22;41951;49.022;12.066;2024-02-14T03:14:56;2.50;99.90
56076;DHT22;41951;49.022;12.066;2024-02-14T03:17:23;2.50;99.90
56076;DHT22;41951;49.022;12.066;2024-02-14T03:19:49;2.60;99.90
56076;DHT22;41951;49.022;12.066;2024-02-14T03:22:17;2.60;99.90
56076;DHT22;41951;49.022;12.066;2024-02-14T03:24:44;2.60;99.90
56076;DHT22;41951;49.022;12.066;2024-02-14T03:27:12;2.70;99.90
56076;DHT22;41951;49.022;12.066;2024-02-14T03:29:37;2.70;99.90
56076;DHT22;41951;49.022;12.066;2024-02-14T03:32:05;2.70;99.90
56076;DHT22;41951;49.022;12.066;2024-02-14T03:34:31;2.80;99.90
56076;DHT22;41951;49.022;12.066;2024-02-14T03:36:59;2.80;99.90
56076;DHT22;41951;49.022;12.066;2024-02-14T03:39:28;2.80;99.90
56076;DHT22;41951;49.022;12.066;2024-02-14T03:41:53;2.90;99.90
56076;DHT22;41951;49.022;12.066;2024-02-14T03:44:19;2.90;99.90
56076;DHT22;41951;49.022;12.066;2024-02-14T03:46:45;3.00;99.90
56076;DHT22;41951;49.022;12.066;2024-02-14T03:49:13;3.00;99.90
56076;DHT22;41951;49.022;12.066;2024-02-14T03:51:38;3.00;99.90
56076;DHT22;41951;49.022;12.066;2024-02-14T03:54:04;3.00;99.90
56076;DHT22;41951;49.022;12.066;2024-02-14T03:56:30;3.00;99.90
56076;DHT22;41951;49.022;12.066;2024-02-14T03:58:58;3.00;99.90
56076;DHT22;41951;49.022;12.066;2024-02-14T04:01:24;3.00;99.90
56076;DHT22;41951;49.022;12.066;2024-02-14T04:03:50;3.00;99.90
56076;DHT22;41951;49.022;12.066;2024-02-14T04:06:15;3.10;99.90
56076;DHT22;41951;49.022;12.066;2024-02-14T04:08:42;3.10;99.90
56076;DHT22;41951;49.022;12.066;2024-02-14T04:11:07;3.10;99.90
56076;DHT22;41951;49.022;12.066;2024-02-14T04:13:33;3.10;99.90
56076;DHT22;41951;49.022;12.066;2024-02-14T04:15:58;3.20;99.90
56076;DHT22;41951;49.022;12.066;2024-02-14T04:18:24;3.20;99.90
56076;DHT22;41951;49.022;12.066;2024-02-14T04:20:49;3.20;99.90
56076;DHT22;41951;49.022;12.066;2024-02-14T04:23:15;3.20;99.90
56076;DHT22;41951;49.022;12.066;2024-02-14T04:25:41;3.20;99.90
56076;DHT22;41951;49.022;12.066;2024-02-14T04:28:06;3.20;99.90
56076;DHT22;41951;49.022;12.066;2024-02-14T04:30:32;3.20;99.90
56076;DHT22;41951;49.022;12.066;2024-02-14T04:32:58;3.10;99.90
56076;DHT22;41951;49.022;12.066;2024-02-14T04:35:23;3.10;99.90
56076;DHT22;41951;49.022;12.066;2024-02-14T04:37:49;3.20;99.90
56076;DHT22;41951;49.022;12.066;2024-02-14T04:40:15;3.20;99.90
56076;DHT22;41951;49.022;12.066;2024-02-14T04:42:41;3.10;99.90
56076;DHT22;41951;49.022;12.066;2024-02-14T04:45:07;3.10;99.90
56076;DHT22;41951;49.022;12.066;2024-02-14T04:47:33;3.10;99.90
56076;DHT22;41951;49.022;12.066;2024-02-14T04:49:59;3.10;99.90
56076;DHT22;41951;49.022;12.066;2024-02-14T04:52:25;3.10;99.90
56076;DHT22;41951;49.022;12.066;2024-02-14T04:54:51;3.10;99.90
56076;DHT22;41951;49.022;12.066;2024-02-14T04:57:16;3.00;99.90
56076;DHT22;41951;49.022;12.066;2024-02-14T04:59:44;3.00;99.90
56076;DHT22;41951;49.022;12.066;2024-02-14T05:02:09;3.00;99.90
56076;DHT22;41951;49.022;12.066;2024-02-14T05:04:36;3.00;99.90
56076;DHT22;41951;49.022;12.066;2024-02-14T05:07:03;2.90;99.90
56076;DHT22;41951;49.022;12.066;2024-02-14T05:09:29;2.90;99.90
56076;DHT22;41951;49.022;12.066;2024-02-14T05:11:55;2.90;99.90
56076;DHT22;41951;49.022;12.066;2024-02-14T05:14:20;2.90;99.90
56076;DHT22;41951;49.022;12.066;2024-02-14T05:16:46;2.90;99.90
56076;DHT22;41951;49.022;12.066;2024-02-14T05:19:12;2.90;99.90
56076;DHT22;41951;49.022;12.066;2024-02-14T05:21:38;2.90;99.90
56076;DHT22;41951;49.022;12.066;2024-02-14T05:24:04;2.90;99.90
56076;DHT22;41951;49.022;12.066;2024-02-14T05:26:30;2.90;99.90
56076;DHT22;41951;49.022;12.066;2024-02-14T05:28:55;2.80;99.90
56076;DHT22;41951;49.022;12.066;2024-02-14T05:31:21;2.80;99.90
56076;DHT22;41951;49.022;12.066;2024-02-14T05:33:46;2.80;99.90
56076;DHT22;41951;49.022;12.066;2024-02-14T05:36:12;2.70;99.90
56076;DHT22;41951;49.022;12.066;2024-02-14T05:38:37;2.70;99.90
56076;DHT22;41951;49.022;12.066;2024-02-14T05:41:03;2.70;99.90
56076;DHT22;41951;49.022;12.066;2024-02-14T05:43:29;2.60;99.90
56076;DHT22;41951;49.022;12.066;2024-02-14T05:45:54;2.60;99.90
56076;DHT22;41951;49.022;12.066;2024-02-14T05:48:20;2.60;99.90
56076;DHT22;41951;49.022;12.066;2024-02-14T05:50:46;2.60;99.90
56076;DHT22;41951;49.022;12.066;2024-02-14T05:53:11;2.60;99.90
56076;DHT22;41951;49.022;12.066;2024-02-14T05:55:38;2.60;99.90
56076;DHT22;41951;49.022;12.066;2024-02-14T05:58:04;2.60;99.90
56076;DHT22;41951;49.022;12.066;2024-02-14T06:00:30;2.70;99.90
56076;DHT22;41951;49.022;12.066;2024-02-14T06:02:56;2.60;99.90
56076;DHT22;41951;49.022;12.066;2024-02-14T06:05:21;2.60;99.90
56076;DHT22;41951;49.022;12.066;2024-02-14T06:07:47;2.60;99.90
56076;DHT22;41951;49.022;12.066;2024-02-14T06:10:13;2.50;99.90
56076;DHT22;41951;49.022;12.066;2024-02-14T06:12:39;2.60;99.90
56076;DHT22;41951;49.022;12.066;2024-02-14T06:15:08;2.60;99.90
56076;DHT22;41951;49.022;12.066;2024-02-14T06:17:34;2.60;99.90
56076;DHT22;41951;49.022;12.066;2024-02-14T06:20:00;2.60;99.90
56076;DHT22;41951;49.022;12.066;2024-02-14T06:22:31;2.60;99.90
56076;DHT22;41951;49.022;12.066;2024-02-14T06:24:57;2.60;99.90
56076;DHT22;41951;49.022;12.066;2024-02-14T06:27:22;2.60;99.90
56076;DHT22;41951;49.022;12.066;2024-02-14T06:29:48;2.60;99.90
56076;DHT22;41951;49.022;12.066;2024-02-14T06:32:14;2.70;99.90
56076;DHT22;41951;49.022;12.066;2024-02-14T06:34:39;2.70;99.90
56076;DHT22;41951;49.022;12.066;2024-02-14T06:37:05;2.70;99.90
56076;DHT22;41951;49.022;12.066;2024-02-14T06:39:31;2.70;99.90
56076;DHT22;41951;49.022;12.066;2024-02-14T06:41:56;2.70;99.90
56076;DHT22;41951;49.022;12.066;2024-02-14T06:44:25;2.70;99.90
56076;DHT22;41951;49.022;12.066;2024-02-14T06:46:51;2.70;99.90
56076;DHT22;41951;49.022;12.066;2024-02-14T06:49:16;2.70;99.90
56076;DHT22;41951;49.022;12.066;2024-02-14T06:51:42;2.70;99.90
56076;DHT22;41951;49.022;12.066;2024-02-14T06:54:08;2.70;99.90
56076;DHT22;41951;49.022;12.066;2024-02-14T06:56:35;2.70;99.90
56076;DHT22;41951;49.022;12.066;2024-02-14T06:59:01;2.80;99.90
56076;DHT22;41951;49.022;12.066;2024-02-14T07:01:28;2.80;99.90
56076;DHT22;41951;49.022;12.066;2024-02-14T07:03:53;2.80;99.90
56076;DHT22;41951;49.022;12.066;2024-02-14T07:06:19;2.80;99.90
56076;DHT22;41951;49.022;12.066;2024-02-14T07:08:45;2.90;99.90
56076;DHT22;41951;49.022;12.066;2024-02-14T07:11:10;2.90;99.90
56076;DHT22;41951;49.022;12.066;2024-02-14T07:13:36;3.00;99.90
56076;DHT22;41951;49.022;12.066;2024-02-14T07:16:02;3.10;99.90
56076;DHT22;41951;49.022;12.066;2024-02-14T07:18:28;3.10;99.90
56076;DHT22;41951;49.022;12.066;2024-02-14T07:20:53;3.10;99.90
56076;DHT22;41951;49.022;12.066;2024-02-14T07:23:20;3.10;99.90
56076;DHT22;41951;49.022;12.066;2024-02-14T07:25:45;3.20;99.90
56076;DHT22;41951;49.022;12.066;2024-02-14T07:28:11;3.20;99.90
56076;DHT22;41951;49.022;12.066;2024-02-14T07:30:37;3.30;99.90
56076;DHT22;41951;49.022;12.066;2024-02-14T07:33:03;3.30;99.90
56076;DHT22;41951;49.022;12.066;2024-02-14T07:35:29;3.30;99.90
56076;DHT22;41951;49.022;12.066;2024-02-14T07:37:55;3.30;99.90
56076;DHT22;41951;49.022;12.066;2024-02-14T07:40:21;3.30;99.90
56076;DHT22;41951;49.022;12.066;2024-02-14T07:42:47;3.30;99.90
56076;DHT22;41951;49.022;12.066;2024-02-14T07:45:13;3.30;99.90
56076;DHT22;41951;49.022;12.066;2024-02-14T07:47:39;3.30;99.90
56076;DHT22;41951;49.022;12.066;2024-02-14T07:50:06;3.40;99.90
56076;DHT22;41951;49.022;12.066;2024-02-14T07:52:32;3.40;99.90
56076;DHT22;41951;49.022;12.066;2024-02-14T07:54:58;3.40;99.90
56076;DHT22;41951;49.022;12.066;2024-02-14T07:57:24;3.40;99.90
56076;DHT22;41951;49.022;12.066;2024-02-14T07:59:50;3.50;99.90
56076;DHT22;41951;49.022;12.066;2024-02-14T08:02:17;3.50;99.90
56076;DHT22;41951;49.022;12.066;2024-02-14T08:04:42;3.60;99.90
56076;DHT22;41951;49.022;12.066;2024-02-14T08:07:09;3.60;99.90
56076;DHT22;41951;49.022;12.066;2024-02-14T08:09:34;3.60;99.90
56076;DHT22;41951;49.022;12.066;2024-02-14T08:12:00;3.70;99.90
56076;DHT22;41951;49.022;12.066;2024-02-14T08:14:26;3.70;99.90
56076;DHT22;41951;49.022;12.066;2024-02-14T08:16:52;3.80;99.90
56076;DHT22;41951;49.022;12.066;2024-02-14T08:19:18;3.70;99.90
56076;DHT22;41951;49.022;12.066;2024-02-14T08:21:44;3.80;99.90
56076;DHT22;41951;49.022;12.066;2024-02-14T08:24:10;3.90;99.90
56076;DHT22;41951;49.022;12.066;2024-02-14T08:26:35;3.90;99.90
56076;DHT22;41951;49.022;12.066;2024-02-14T08:29:01;3.90;99.90
56076;DHT22;41951;49.022;12.066;2024-02-14T08:31:27;3.90;99.90
56076;DHT22;41951;49.022;12.066;2024-02-14T08:33:53;3.90;99.90
56076;DHT22;41951;49.022;12.066;2024-02-14T08:36:22;3.90;99.90
56076;DHT22;41951;49.022;12.066;2024-02-14T08:38:47;3.90;99.90
56076;DHT22;41951;49.022;12.066;2024-02-14T08:41:13;4.00;99.90
56076;DHT22;41951;49.022;12.066;2024-02-14T08:43:39;4.00;99.90
56076;DHT22;41951;49.022;12.066;2024-02-14T08:46:10;4.00;99.90
56076;DHT22;41951;49.022;12.066;2024-02-14T08:48:36;4.00;99.90
56076;DHT22;41951;49.022;12.066;2024-02-14T08:51:07;4.00;99.90
56076;DHT22;41951;49.022;12.066;2024-02-14T08:53:34;4.00;99.90
56076;DHT22;41951;49.022;12.066;2024-02-14T08:56:00;4.00;99.90
56076;DHT22;41951;49.022;12.066;2024-02-14T08:58:26;4.10;99.90
56076;DHT22;41951;49.022;12.066;2024-02-14T09:00:51;4.20;99.90
56076;DHT22;41951;49.022;12.066;2024-02-14T09:03:19;4.30;99.90
56076;DHT22;41951;49.022;12.066;2024-02-14T09:05:45;4.40;99.90
56076;DHT22;41951;49.022;12.066;2024-02-14T09:08:12;4.50;99.90
56076;DHT22;41951;49.022;12.066;2024-02-14T09:10:38;4.60;99.90
56076;DHT22;41951;49.022;12.066;2024-02-14T09:13:04;4.60;99.90
56076;DHT22;41951;49.022;12.066;2024-02-14T09:15:29;4.60;99.90
56076;DHT22;41951;49.022;12.066;2024-02-14T09:17:56;4.70;99.90
56076;DHT22;41951;49.022;12.066;2024-02-14T09:20:22;4.70;99.90
56076;DHT22;41951;49.022;12.066;2024-02-14T09:22:48;4.70;99.90
56076;DHT22;41951;49.022;12.066;2024-02-14T09:25:13;4.80;99.90
56076;DHT22;41951;49.022;12.066;2024-02-14T09:27:39;4.90;99.90
56076;DHT22;41951;49.022;12.066;2024-02-14T09:30:07;4.80;99.90
56076;DHT22;41951;49.022;12.066;2024-02-14T09:32:35;4.90;99.90
56076;DHT22;41951;49.022;12.066;2024-02-14T09:35:01;4.90;99.90
56076;DHT22;41951;49.022;12.066;2024-02-14T09:37:29;5.00;99.90
56076;DHT22;41951;49.022;12.066;2024-02-14T09:39:54;5.10;99.90
56076;DHT22;41951;49.022;12.066;2024-02-14T09:42:28;5.20;99.90
56076;DHT22;41951;49.022;12.066;2024-02-14T09:44:58;5.30;99.90
56076;DHT22;41951;49.022;12.066;2024-02-14T09:47:25;5.30;99.90
56076;DHT22;41951;49.022;12.066;2024-02-14T09:49:55;5.40;99.90
56076;DHT22;41951;49.022;12.066;2024-02-14T09:52:22;5.30;99.90
56076;DHT22;41951;49.022;12.066;2024-02-14T09:54:49;5.40;99.90
56076;DHT22;41951;49.022;12.066;2024-02-14T09:57:16;5.50;99.90
56076;DHT22;41951;49.022;12.066;2024-02-14T09:59:43;5.50;99.90
56076;DHT22;41951;49.022;12.066;2024-02-14T10:02:09;5.60;99.90
56076;DHT22;41951;49.022;12.066;2024-02-14T10:04:36;5.60;99.90
56076;DHT22;41951;49.022;12.066;2024-02-14T10:07:06;5.60;99.90
56076;DHT22;41951;49.022;12.066;2024-02-14T10:09:40;5.70;99.90
56076;DHT22;41951;49.022;12.066;2024-02-14T10:12:06;5.70;99.90
56076;DHT22;41951;49.022;12.066;2024-02-14T10:14:34;5.80;99.90
56076;DHT22;41951;49.022;12.066;2024-02-14T10:17:00;5.80;99.90
56076;DHT22;41951;49.022;12.066;2024-02-14T10:19:26;5.80;99.90
56076;DHT22;41951;49.022;12.066;2024-02-14T10:21:59;5.80;99.90
56076;DHT22;41951;49.022;12.066;2024-02-14T10:24:26;5.80;99.90
56076;DHT22;41951;49.022;12.066;2024-02-14T10:26:51;5.90;99.90
56076;DHT22;41951;49.022;12.066;2024-02-14T10:29:19;5.90;99.90
56076;DHT22;41951;49.022;12.066;2024-02-14T10:31:46;6.00;99.90
56076;DHT22;41951;49.022;12.066;2024-02-14T10:34:11;6.10;99.90
56076;DHT22;41951;49.022;12.066;2024-02-14T10:36:37;6.10;99.90
56076;DHT22;41951;49.022;12.066;2024-02-14T10:39:07;6.10;99.90
56076;DHT22;41951;49.022;12.066;2024-02-14T10:41:33;6.20;99.90
56076;DHT22;41951;49.022;12.066;2024-02-14T10:44:04;6.20;99.90
56076;DHT22;41951;49.022;12.066;2024-02-14T10:46:34;6.20;99.90
56076;DHT22;41951;49.022;12.066;2024-02-14T10:49:06;6.20;99.90
56076;DHT22;41951;49.022;12.066;2024-02-14T10:51:36;6.20;99.90
56076;DHT22;41951;49.022;12.066;2024-02-14T10:54:10;6.10;99.90
56076;DHT22;41951;49.022;12.066;2024-02-14T10:56:39;6.10;99.90
56076;DHT22;41951;49.022;12.066;2024-02-14T10:59:07;6.00;99.90
56076;DHT22;41951;49.022;12.066;2024-02-14T11:01:34;6.00;99.90
56076;DHT22;41951;49.022;12.066;2024-02-14T11:04:01;6.00;99.90
56076;DHT22;41951;49.022;12.066;2024-02-14T11:06:27;5.90;99.90
56076;DHT22;41951;49.022;12.066;2024-02-14T11:09:00;5.90;99.90
56076;DHT22;41951;49.022;12.066;2024-02-14T11:11:29;5.90;99.90
56076;DHT22;41951;49.022;12.066;2024-02-14T11:13:56;6.00;99.90
56076;DHT22;41951;49.022;12.066;2024-02-14T11:16:26;6.00;99.90
56076;DHT22;41951;49.022;12.066;2024-02-14T11:19:10;6.00;99.90
56076;DHT22;41951;49.022;12.066;2024-02-14T11:21:40;6.10;99.90
56076;DHT22;41951;49.022;12.066;2024-02-14T11:24:07;6.20;99.90
56076;DHT22;41951;49.022;12.066;2024-02-14T11:26:51;6.10;99.90
56076;DHT22;41951;49.022;12.066;2024-02-14T11:29:17;6.10;99.90
56076;DHT22;41951;49.022;12.066;2024-02-14T11:31:44;6.10;99.90
56076;DHT22;41951;49.022;12.066;2024-02-14T11:34:16;6.10;99.90
56076;DHT22;41951;49.022;12.066;2024-02-14T11:36:43;6.20;99.90
56076;DHT22;41951;49.022;12.066;2024-02-14T11:39:12;6.30;99.90
56076;DHT22;41951;49.022;12.066;2024-02-14T11:41:39;6.40;99.90
56076;DHT22;41951;49.022;12.066;2024-02-14T11:44:05;6.40;99.90
56076;DHT22;41951;49.022;12.066;2024-02-14T11:46:32;6.50;99.90
56076;DHT22;41951;49.022;12.066;2024-02-14T11:49:01;6.70;99.90
56076;DHT22;41951;49.022;12.066;2024-02-14T11:51:31;6.70;99.90
56076;DHT22;41951;49.022;12.066;2024-02-14T11:53:58;6.70;99.90
56076;DHT22;41951;49.022;12.066;2024-02-14T11:56:39;6.70;99.90
56076;DHT22;41951;49.022;12.066;2024-02-14T11:59:07;6.80;99.90
56076;DHT22;41951;49.022;12.066;2024-02-14T12:01:37;6.90;99.90
56076;DHT22;41951;49.022;12.066;2024-02-14T12:04:08;6.80;99.90
56076;DHT22;41951;49.022;12.066;2024-02-14T12:06:34;6.90;99.90
56076;DHT22;41951;49.022;12.066;2024-02-14T12:09:01;6.90;99.90
56076;DHT22;41951;49.022;12.066;2024-02-14T12:11:31;6.90;99.90
56076;DHT22;41951;49.022;12.066;2024-02-14T12:14:01;6.90;99.90
56076;DHT22;41951;49.022;12.066;2024-02-14T12:16:28;6.90;99.90
56076;DHT22;41951;49.022;12.066;2024-02-14T12:19:15;6.90;99.90
56076;DHT22;41951;49.022;12.066;2024-02-14T12:21:42;6.90;99.90
56076;DHT22;41951;49.022;12.066;2024-02-14T12:24:11;6.90;99.90
56076;DHT22;41951;49.022;12.066;2024-02-14T12:26:40;6.90;99.90
56076;DHT22;41951;49.022;12.066;2024-02-14T12:29:07;7.00;99.90
56076;DHT22;41951;49.022;12.066;2024-02-14T12:31:33;7.10;99.90
56076;DHT22;41951;49.022;12.066;2024-02-14T12:34:00;7.20;99.90
56076;DHT22;41951;49.022;12.066;2024-02-14T12:36:28;7.20;99.90
56076;DHT22;41951;49.022;12.066;2024-02-14T12:38:54;7.30;99.90
56076;DHT22;41951;49.022;12.066;2024-02-14T12:41:21;7.30;99.90
56076;DHT22;41951;49.022;12.066;2024-02-14T12:43:47;7.40;99.90
56076;DHT22;41951;49.022;12.066;2024-02-14T12:46:13;7.40;99.90
56076;DHT22;41951;49.022;12.066;2024-02-14T12:48:39;7.60;99.90
56076;DHT22;41951;49.022;12.066;2024-02-14T12:51:05;7.60;99.90
56076;DHT22;41951;49.022;12.066;2024-02-14T12:53:30;7.70;99.90
56076;DHT22;41951;49.022;12.066;2024-02-14T12:55:56;7.60;99.90
56076;DHT22;41951;49.022;12.066;2024-02-14T12:58:22;7.70;99.90
56076;DHT22;41951;49.022;12.066;2024-02-14T13:00:47;7.80;99.90
56076;DHT22;41951;49.022;12.066;2024-02-14T13:03:13;8.10;99.90
56076;DHT22;41951;49.022;12.066;2024-02-14T13:05:39;8.30;99.90
56076;DHT22;41951;49.022;12.066;2024-02-14T13:08:06;8.50;99.90
56076;DHT22;41951;49.022;12.066;2024-02-14T13:10:31;8.40;99.90
56076;DHT22;41951;49.022;12.066;2024-02-14T13:12:57;8.50;99.90
56076;DHT22;41951;49.022;12.066;2024-02-14T13:15:23;8.40;99.90
56076;DHT22;41951;49.022;12.066;2024-02-14T13:17:48;8.50;99.90
56076;DHT22;41951;49.022;12.066;2024-02-14T13:20:14;8.60;99.90
56076;DHT22;41951;49.022;12.066;2024-02-14T13:22:43;8.60;99.90
56076;DHT22;41951;49.022;12.066;2024-02-14T13:25:09;8.70;99.90
56076;DHT22;41951;49.022;12.066;2024-02-14T13:27:35;8.80;99.90
56076;DHT22;41951;49.022;12.066;2024-02-14T13:30:04;8.80;99.90
56076;DHT22;41951;49.022;12.066;2024-02-14T13:32:30;8.70;99.90
56076;DHT22;41951;49.022;12.066;2024-02-14T13:34:55;8.80;99.90
56076;DHT22;41951;49.022;12.066;2024-02-14T13:37:22;8.80;99.90
56076;DHT22;41951;49.022;12.066;2024-02-14T13:39:48;8.90;99.90
56076;DHT22;41951;49.022;12.066;2024-02-14T13:42:14;8.90;99.90
56076;DHT22;41951;49.022;12.066;2024-02-14T13:44:40;8.90;99.90
56076;DHT22;41951;49.022;12.066;2024-02-14T13:47:05;8.70;99.90
56076;DHT22;41951;49.022;12.066;2024-02-14T13:49:31;9.00;99.90
56076;DHT22;41951;49.022;12.066;2024-02-14T13:51:57;9.30;99.90
56076;DHT22;41951;49.022;12.066;2024-02-14T13:54:23;9.60;99.90
56076;DHT22;41951;49.022;12.066;2024-02-14T13:56:50;9.80;99.90
56076;DHT22;41951;49.022;12.066;2024-02-14T13:59:16;10.00;99.90
56076;DHT22;41951;49.022;12.066;2024-02-14T14:01:42;10.10;99.90
56076;DHT22;41951;49.022;12.066;2024-02-14T14:04:07;10.00;99.90
56076;DHT22;41951;49.022;12.066;2024-02-14T14:06:33;10.00;99.90
56076;DHT22;41951;49.022;12.066;2024-02-14T14:08:59;10.40;99.90
56076;DHT22;41951;49.022;12.066;2024-02-14T14:11:25;11.00;99.90
56076;DHT22;41951;49.022;12.066;2024-02-14T14:13:51;10.70;99.90
56076;DHT22;41951;49.022;12.066;2024-02-14T14:16:17;10.10;99.90
56076;DHT22;41951;49.022;12.066;2024-02-14T14:18:43;9.80;99.90
56076;DHT22;41951;49.022;12.066;2024-02-14T14:21:08;9.50;99.90
56076;DHT22;41951;49.022;12.066;2024-02-14T14:23:34;9.40;99.90
56076;DHT22;41951;49.022;12.066;2024-02-14T14:25:59;9.30;99.90
56076;DHT22;41951;49.022;12.066;2024-02-14T14:28:26;9.30;99.90
56076;DHT22;41951;49.022;12.066;2024-02-14T14:30:52;9.20;99.90
56076;DHT22;41951;49.022;12.066;2024-02-14T14:33:20;9.10;99.90
56076;DHT22;41951;49.022;12.066;2024-02-14T14:35:45;9.10;99.90
56076;DHT22;41951;49.022;12.066;2024-02-14T14:38:11;8.90;99.90
56076;DHT22;41951;49.022;12.066;2024-02-14T14:40:37;8.90;99.90
56076;DHT22;41951;49.022;12.066;2024-02-14T14:43:03;8.80;99.90
56076;DHT22;41951;49.022;12.066;2024-02-14T14:45:29;8.70;99.90
56076;DHT22;41951;49.022;12.066;2024-02-14T14:47:56;8.60;99.90
56076;DHT22;41951;49.022;12.066;2024-02-14T14:50:22;8.60;99.90
56076;DHT22;41951;49.022;12.066;2024-02-14T14:52:47;8.50;99.90
56076;DHT22;41951;49.022;12.066;2024-02-14T14:55:13;8.50;99.90
56076;DHT22;41951;49.022;12.066;2024-02-14T14:57:38;8.40;99.90
56076;DHT22;41951;49.022;12.066;2024-02-14T15:00:09;8.40;99.90
56076;DHT22;41951;49.022;12.066;2024-02-14T15:02:41;8.40;99.90
56076;DHT22;41951;49.022;12.066;2024-02-14T15:05:11;8.30;99.90
56076;DHT22;41951;49.022;12.066;2024-02-14T15:07:41;8.20;99.90
56076;DHT22;41951;49.022;12.066;2024-02-14T15:10:07;8.30;99.90
56076;DHT22;41951;49.022;12.066;2024-02-14T15:12:35;8.20;99.90
56076;DHT22;41951;49.022;12.066;2024-02-14T15:15:03;8.20;99.90
56076;DHT22;41951;49.022;12.066;2024-02-14T15:17:29;8.10;99.90
56076;DHT22;41951;49.022;12.066;2024-02-14T15:19:55;8.10;99.90
56076;DHT22;41951;49.022;12.066;2024-02-14T15:22:21;8.10;99.90
56076;DHT22;41951;49.022;12.066;2024-02-14T15:24:46;8.10;99.90
56076;DHT22;41951;49.022;12.066;2024-02-14T15:27:12;8.10;99.90